Time;durP1;ratioP1;P1;durP2;ratioP2;P2;SDS_P1;SDS_P2;PMS_P1;PMS_P2;Temp;Humidity;BMP_temperature;BMP_pressure;BME280_temperature;BME280_humidity;BME280_pressure;Samples;Min_cycle;Max_cycle;Signal;HPM_P1;HPM_P2
2023/09/09 00:00:46;;;;;;;15.97;14.47;;;24.60;99.90;;;;;;5022247;28;21981;-75
2023/09/09 00:03:12;;;;;;;14.97;13.57;;;24.50;99.90;;;;;;5024503;28;20459;-75
2023/09/09 00:05:38;;;;;;;14.47;13.13;;;24.40;99.90;;;;;;5021320;28;20484;-75
2023/09/09 00:08:04;;;;;;;14.80;13.23;;;24.40;99.90;;;;;;5027600;28;20513;-75
2023/09/09 00:10:31;;;;;;;14.50;12.67;;;24.40;99.90;;;;;;5024748;28;20475;-75
2023/09/09 00:12:57;;;;;;;15.30;13.63;;;24.40;99.90;;;;;;5027775;28;20254;-75
2023/09/09 00:15:23;;;;;;;15.77;14.00;;;24.40;99.90;;;;;;5026128;28;20419;-74
2023/09/09 00:17:48;;;;;;;15.73;14.13;;;24.30;99.90;;;;;;5028036;28;20180;-74
2023/09/09 00:20:14;;;;;;;15.40;13.80;;;24.30;99.90;;;;;;5026902;28;20181;-75
2023/09/09 00:22:40;;;;;;;14.83;13.47;;;24.30;99.90;;;;;;5028472;28;20205;-75
2023/09/09 00:25:07;;;;;;;16.27;14.73;;;24.30;99.90;;;;;;5025896;28;20433;-75
2023/09/09 00:27:32;;;;;;;17.70;16.00;;;24.20;99.90;;;;;;5026662;28;20189;-75
2023/09/09 00:29:58;;;;;;;19.87;18.00;;;24.20;99.90;;;;;;5021154;28;20489;-75
2023/09/09 00:32:23;;;;;;;18.30;16.60;;;24.20;99.90;;;;;;5023269;28;20240;-75
2023/09/09 00:34:49;;;;;;;19.50;17.50;;;24.10;99.90;;;;;;5008752;28;20238;-75
2023/09/09 00:37:15;;;;;;;19.47;17.70;;;24.10;99.90;;;;;;5028751;28;20183;-75
2023/09/09 00:39:40;;;;;;;19.17;17.20;;;24.10;99.90;;;;;;5025937;28;20601;-74
2023/09/09 00:42:06;;;;;;;19.17;17.30;;;24.10;99.90;;;;;;5023907;28;20252;-75
2023/09/09 00:44:31;;;;;;;18.90;17.10;;;24.00;99.90;;;;;;5025348;28;20239;-75
2023/09/09 00:46:58;;;;;;;19.33;17.53;;;24.00;99.90;;;;;;5027743;28;20259;-74
2023/09/09 00:49:24;;;;;;;18.77;16.87;;;24.00;99.90;;;;;;5040406;28;20193;-74
2023/09/09 00:51:50;;;;;;;17.37;15.67;;;23.90;99.90;;;;;;5044126;28;20450;-75
2023/09/09 00:54:15;;;;;;;19.63;17.30;;;23.90;99.90;;;;;;5043213;28;20525;-75
2023/09/09 00:56:42;;;;;;;18.77;16.70;;;23.80;99.90;;;;;;5045120;28;20440;-75
2023/09/09 00:59:10;;;;;;;20.97;16.47;;;23.80;99.90;;;;;;5040962;28;20201;-75
2023/09/09 01:01:36;;;;;;;18.67;16.67;;;23.80;99.90;;;;;;5041128;28;20420;-75
2023/09/09 01:04:02;;;;;;;18.10;16.30;;;23.80;99.90;;;;;;5040029;28;20445;-75
2023/09/09 01:06:28;;;;;;;19.37;16.30;;;23.80;99.90;;;;;;5034792;28;20415;-75
2023/09/09 01:08:54;;;;;;;17.43;15.40;;;23.80;99.90;;;;;;5029798;28;20470;-74
2023/09/09 01:11:19;;;;;;;18.17;16.53;;;23.80;99.90;;;;;;5029665;28;20204;-74
2023/09/09 01:13:45;;;;;;;17.17;14.97;;;23.80;99.90;;;;;;5025279;28;20227;-74
2023/09/09 01:16:11;;;;;;;17.73;16.13;;;23.80;99.90;;;;;;5027757;28;20180;-74
2023/09/09 01:18:37;;;;;;;20.43;16.17;;;23.80;99.90;;;;;;5027558;28;20220;-74
2023/09/09 01:21:10;;;;;;;16.80;15.00;;;23.80;99.90;;;;;;5029739;28;20712;-74
2023/09/09 01:23:36;;;;;;;17.03;15.43;;;23.70;99.90;;;;;;5021287;28;20193;-74
2023/09/09 01:26:02;;;;;;;17.23;15.53;;;23.70;99.90;;;;;;5022708;28;20439;-74
2023/09/09 01:28:28;;;;;;;15.07;13.67;;;23.70;99.90;;;;;;5025970;28;20950;-74
2023/09/09 01:30:54;;;;;;;17.23;15.43;;;23.70;99.90;;;;;;5026117;28;20407;-75
2023/09/09 01:33:19;;;;;;;15.67;14.20;;;23.70;99.90;;;;;;5026724;28;20254;-75
2023/09/09 01:35:46;;;;;;;15.50;14.10;;;23.60;99.90;;;;;;5028870;28;20545;-74
2023/09/09 01:38:12;;;;;;;16.00;14.40;;;23.60;99.90;;;;;;5025586;28;20164;-74
2023/09/09 01:40:38;;;;;;;15.47;13.83;;;23.60;99.90;;;;;;5027184;28;20415;-74
2023/09/09 01:43:04;;;;;;;14.73;13.33;;;23.60;99.90;;;;;;5019800;28;20527;-74
2023/09/09 01:45:29;;;;;;;14.60;12.60;;;23.60;99.90;;;;;;5025933;28;20196;-74
2023/09/09 01:47:55;;;;;;;14.60;13.20;;;23.60;99.90;;;;;;5021330;28;20287;-74
2023/09/09 01:50:21;;;;;;;14.40;13.10;;;23.50;99.90;;;;;;5030029;28;20719;-74
2023/09/09 01:52:46;;;;;;;15.23;13.80;;;23.50;99.90;;;;;;5024889;28;20701;-74
2023/09/09 01:55:12;;;;;;;19.03;14.47;;;23.40;99.90;;;;;;5027735;28;20192;-74
2023/09/09 01:57:37;;;;;;;14.67;13.37;;;23.40;99.90;;;;;;5025772;28;20253;-74
2023/09/09 02:00:10;;;;;;;16.23;13.03;;;23.40;99.90;;;;;;5022986;28;20180;-74
2023/09/09 02:02:35;;;;;;;14.73;13.33;;;23.40;99.90;;;;;;5022262;28;20212;-74
2023/09/09 02:05:01;;;;;;;17.37;13.90;;;23.40;99.90;;;;;;5026700;28;20423;-74
2023/09/09 02:07:27;;;;;;;15.53;13.43;;;23.40;99.90;;;;;;5025292;28;20196;-74
2023/09/09 02:09:53;;;;;;;15.20;13.80;;;23.40;99.90;;;;;;5023538;28;20692;-74
2023/09/09 02:12:18;;;;;;;15.00;13.60;;;23.40;99.90;;;;;;5024269;28;20677;-74
2023/09/09 02:14:44;;;;;;;13.83;12.53;;;23.30;99.90;;;;;;5025244;28;20185;-74
2023/09/09 02:17:11;;;;;;;15.53;14.13;;;23.30;99.90;;;;;;5026629;28;20184;-74
2023/09/09 02:19:36;;;;;;;15.03;13.67;;;23.30;99.90;;;;;;5025753;28;20183;-74
2023/09/09 02:22:02;;;;;;;15.37;13.77;;;23.30;99.90;;;;;;5023341;28;20447;-74
2023/09/09 02:24:28;;;;;;;18.80;13.63;;;23.30;99.90;;;;;;5023373;28;20429;-74
2023/09/09 02:26:53;;;;;;;15.80;14.30;;;23.20;99.90;;;;;;5024507;28;20188;-74
2023/09/09 02:29:19;;;;;;;15.57;14.07;;;23.20;99.90;;;;;;5014508;28;20196;-74
2023/09/09 02:31:45;;;;;;;16.40;14.90;;;23.20;99.90;;;;;;5022989;28;20769;-74
2023/09/09 02:34:11;;;;;;;16.33;14.83;;;23.20;99.90;;;;;;5027487;28;20506;-74
2023/09/09 02:36:36;;;;;;;14.97;13.63;;;23.10;99.90;;;;;;5026141;28;20181;-74
2023/09/09 02:39:02;;;;;;;15.43;13.83;;;23.10;99.90;;;;;;5026615;28;20225;-74
2023/09/09 02:41:29;;;;;;;14.80;13.30;;;23.10;99.90;;;;;;5021474;28;20189;-74
2023/09/09 02:43:54;;;;;;;15.33;13.63;;;23.10;99.90;;;;;;5023773;28;20187;-74
2023/09/09 02:46:22;;;;;;;15.83;14.00;;;23.10;99.90;;;;;;5029803;28;20426;-74
2023/09/09 02:48:48;;;;;;;14.60;13.23;;;23.00;99.90;;;;;;5025369;28;20266;-74
2023/09/09 02:51:16;;;;;;;14.57;13.07;;;23.00;99.90;;;;;;5020352;28;20527;-74
2023/09/09 02:53:41;;;;;;;14.83;13.40;;;23.00;99.90;;;;;;5027352;28;20409;-74
2023/09/09 02:56:07;;;;;;;13.07;11.87;;;23.00;99.90;;;;;;5019043;28;20807;-74
2023/09/09 02:58:33;;;;;;;14.23;12.93;;;23.00;99.90;;;;;;5024748;28;20663;-74
2023/09/09 03:01:05;;;;;;;13.97;12.43;;;23.00;99.90;;;;;;5022122;28;20185;-74
2023/09/09 03:03:31;;;;;;;15.03;13.43;;;23.00;99.90;;;;;;5023832;28;20297;-74
2023/09/09 03:05:57;;;;;;;14.80;13.30;;;23.00;99.90;;;;;;5024062;28;20514;-74
2023/09/09 03:08:23;;;;;;;15.50;14.10;;;23.00;99.90;;;;;;5024147;28;20429;-74
2023/09/09 03:10:49;;;;;;;15.03;13.53;;;23.00;99.90;;;;;;5027318;28;20427;-74
2023/09/09 03:13:14;;;;;;;13.83;12.50;;;22.90;99.90;;;;;;5018105;28;20942;-74
2023/09/09 03:15:40;;;;;;;14.23;12.93;;;22.80;99.90;;;;;;5021222;28;20677;-75
2023/09/09 03:18:05;;;;;;;15.77;14.17;;;22.70;99.90;;;;;;5024174;28;20589;-74
2023/09/09 03:20:31;;;;;;;14.80;13.50;;;22.70;99.90;;;;;;5025429;28;20263;-74
2023/09/09 03:22:59;;;;;;;13.77;12.50;;;22.70;99.90;;;;;;5021878;28;20208;-74
2023/09/09 03:25:24;;;;;;;13.50;12.30;;;22.60;99.90;;;;;;5014370;28;20657;-74
2023/09/09 03:27:50;;;;;;;14.63;13.23;;;22.50;99.90;;;;;;5020784;28;20422;-74
2023/09/09 03:30:15;;;;;;;14.50;13.10;;;22.50;99.90;;;;;;5015019;28;20205;-74
2023/09/09 03:32:41;;;;;;;16.00;14.40;;;22.50;99.90;;;;;;5021762;28;20688;-74
2023/09/09 03:35:07;;;;;;;14.37;12.97;;;22.60;99.90;;;;;;5019346;28;20176;-74
2023/09/09 03:37:32;;;;;;;14.07;12.73;;;22.50;99.90;;;;;;5022026;28;20184;-74
2023/09/09 03:39:58;;;;;;;14.53;13.13;;;22.50;99.90;;;;;;5019108;28;20443;-74
2023/09/09 03:42:24;;;;;;;15.67;12.90;;;22.50;99.90;;;;;;5029195;28;20254;-74
2023/09/09 03:44:49;;;;;;;15.10;13.70;;;22.50;99.90;;;;;;5025318;28;20187;-74
2023/09/09 03:47:15;;;;;;;14.40;13.07;;;22.50;99.90;;;;;;5030000;28;20188;-74
2023/09/09 03:49:40;;;;;;;15.93;14.10;;;22.50;99.90;;;;;;5025383;28;20208;-74
2023/09/09 03:52:06;;;;;;;14.57;13.17;;;22.40;99.90;;;;;;5025706;28;20192;-74
2023/09/09 03:54:32;;;;;;;14.87;13.47;;;22.40;99.90;;;;;;5025823;28;20238;-74
2023/09/09 03:56:57;;;;;;;13.87;12.67;;;22.40;99.90;;;;;;5026772;28;20185;-74
2023/09/09 03:59:24;;;;;;;15.60;14.00;;;22.40;99.90;;;;;;5022781;28;20622;-74
2023/09/09 04:01:49;;;;;;;16.27;14.67;;;22.40;99.90;;;;;;5027076;28;20208;-75
2023/09/09 04:04:15;;;;;;;14.33;13.07;;;22.40;99.90;;;;;;5011556;28;20448;-75
2023/09/09 04:06:40;;;;;;;15.77;13.43;;;22.30;99.90;;;;;;5027229;28;20192;-75
2023/09/09 04:09:06;;;;;;;14.43;12.93;;;22.30;99.90;;;;;;5026284;28;20201;-75
2023/09/09 04:11:31;;;;;;;14.70;13.40;;;22.20;99.90;;;;;;5030594;28;20263;-75
2023/09/09 04:14:00;;;;;;;14.37;13.00;;;22.20;99.90;;;;;;5019672;28;20208;-75
2023/09/09 04:16:26;;;;;;;14.30;13.00;;;22.20;99.90;;;;;;5014656;28;20203;-75
2023/09/09 04:18:52;;;;;;;15.50;13.93;;;22.20;99.90;;;;;;5023428;28;20790;-75
2023/09/09 04:21:17;;;;;;;15.17;13.77;;;22.10;99.90;;;;;;5029150;28;20673;-75
2023/09/09 04:23:43;;;;;;;14.50;13.20;;;22.10;99.90;;;;;;5026857;28;20272;-75
2023/09/09 04:26:08;;;;;;;14.67;13.27;;;22.00;99.90;;;;;;5027837;28;20613;-75
2023/09/09 04:28:34;;;;;;;14.53;13.00;;;22.00;99.90;;;;;;5027620;28;20176;-75
2023/09/09 04:30:59;;;;;;;15.83;14.33;;;22.10;99.90;;;;;;5011023;28;20235;-75
2023/09/09 04:33:25;;;;;;;20.63;14.37;;;22.00;99.90;;;;;;5020989;28;20205;-75
2023/09/09 04:35:50;;;;;;;14.83;13.40;;;22.00;99.90;;;;;;5027100;28;20189;-75
2023/09/09 04:38:17;;;;;;;14.27;12.77;;;22.00;99.90;;;;;;5022683;28;20165;-75
2023/09/09 04:40:42;;;;;;;14.33;12.87;;;22.00;99.90;;;;;;5031348;28;20169;-75
2023/09/09 04:43:08;;;;;;;14.37;12.87;;;22.00;99.90;;;;;;5032729;28;21130;-75
2023/09/09 04:45:34;;;;;;;13.97;12.47;;;22.00;99.90;;;;;;5030447;28;20953;-75
2023/09/09 04:47:59;;;;;;;14.03;12.83;;;21.90;99.90;;;;;;5027054;28;20169;-75
2023/09/09 04:50:25;;;;;;;13.83;12.53;;;22.00;99.90;;;;;;5030364;28;20212;-75
2023/09/09 04:52:50;;;;;;;13.50;12.17;;;21.90;99.90;;;;;;5024469;28;20208;-75
2023/09/09 04:55:16;;;;;;;15.03;13.53;;;21.90;99.90;;;;;;5013271;28;20179;-75
2023/09/09 04:57:42;;;;;;;14.80;13.30;;;21.90;99.90;;;;;;5025601;28;20653;-75
2023/09/09 05:00:08;;;;;;;13.67;12.30;;;21.90;99.90;;;;;;5026717;28;20921;-75
2023/09/09 05:02:34;;;;;;;14.40;13.00;;;21.90;99.90;;;;;;5021188;28;20287;-74
2023/09/09 05:05:03;;;;;;;13.40;12.10;;;21.90;99.90;;;;;;5024342;28;20435;-74
2023/09/09 05:07:34;;;;;;;14.17;12.77;;;21.90;99.90;;;;;;5025097;28;20478;-74
2023/09/09 05:10:00;;;;;;;14.33;12.67;;;21.90;99.90;;;;;;5025556;28;20473;-74
2023/09/09 05:12:25;;;;;;;13.47;12.17;;;21.90;99.90;;;;;;5025258;28;20450;-74
2023/09/09 05:14:51;;;;;;;19.80;12.90;;;21.90;99.90;;;;;;5023434;28;20180;-74
2023/09/09 05:17:17;;;;;;;13.93;12.60;;;21.90;99.90;;;;;;5025329;28;20181;-74
2023/09/09 05:19:42;;;;;;;14.10;12.30;;;21.90;99.90;;;;;;5024562;28;20187;-74
2023/09/09 05:22:08;;;;;;;15.67;14.10;;;21.90;99.90;;;;;;5024169;28;20199;-74
2023/09/09 05:24:33;;;;;;;13.23;12.00;;;21.90;99.90;;;;;;5023284;28;20197;-74
2023/09/09 05:26:59;;;;;;;14.50;12.97;;;21.90;99.90;;;;;;5023514;28;20196;-74
2023/09/09 05:29:24;;;;;;;14.60;13.37;;;21.90;99.90;;;;;;5028728;28;20274;-74
2023/09/09 05:31:50;;;;;;;13.93;12.53;;;21.90;99.90;;;;;;5023180;28;20287;-74
2023/09/09 05:34:15;;;;;;;14.43;13.00;;;21.90;99.90;;;;;;5023729;28;20656;-74
2023/09/09 05:36:41;;;;;;;16.57;13.93;;;21.90;99.90;;;;;;5019549;28;20227;-74
2023/09/09 05:39:07;;;;;;;14.53;13.23;;;21.90;99.90;;;;;;5028505;28;20287;-74
2023/09/09 05:41:32;;;;;;;14.07;12.77;;;21.90;99.90;;;;;;5024560;28;20177;-74
2023/09/09 05:43:58;;;;;;;14.10;12.90;;;21.90;99.90;;;;;;5025005;28;20263;-74
2023/09/09 05:46:23;;;;;;;12.90;11.70;;;21.90;99.90;;;;;;5036935;28;20661;-72
2023/09/09 05:48:49;;;;;;;13.40;12.10;;;21.90;99.90;;;;;;5026476;28;20276;-74
2023/09/09 05:51:14;;;;;;;13.90;12.50;;;21.90;99.90;;;;;;5036473;28;20164;-74
2023/09/09 05:53:41;;;;;;;14.43;12.83;;;21.90;99.90;;;;;;5044941;28;20204;-74
2023/09/09 05:56:07;;;;;;;14.03;12.70;;;21.80;99.90;;;;;;5041556;28;20192;-74
2023/09/09 05:58:35;;;;;;;14.97;13.57;;;21.80;99.90;;;;;;5042933;28;21206;-74
2023/09/09 06:01:01;;;;;;;16.30;14.60;;;21.80;99.90;;;;;;5028328;28;20936;-75
2023/09/09 06:03:26;;;;;;;14.47;13.17;;;21.80;99.90;;;;;;5046310;28;20454;-74
2023/09/09 06:05:52;;;;;;;14.27;12.97;;;21.70;99.90;;;;;;5042223;28;20435;-74
2023/09/09 06:08:17;;;;;;;15.00;13.40;;;21.80;99.90;;;;;;5033555;28;20188;-74
2023/09/09 06:10:43;;;;;;;15.07;13.67;;;21.80;99.90;;;;;;5029327;28;20295;-74
2023/09/09 06:13:09;;;;;;;14.17;12.83;;;21.90;99.90;;;;;;5026735;28;20228;-74
2023/09/09 06:15:34;;;;;;;19.20;14.93;;;21.90;99.90;;;;;;5027007;28;20531;-74
2023/09/09 06:18:00;;;;;;;16.63;14.93;;;21.90;99.90;;;;;;5028722;28;20857;-74
2023/09/09 06:20:26;;;;;;;15.37;13.63;;;21.90;99.90;;;;;;5028187;28;20176;-74
2023/09/09 06:22:52;;;;;;;16.00;14.40;;;21.90;99.90;;;;;;5024271;28;20748;-74
2023/09/09 06:25:18;;;;;;;14.33;13.03;;;21.90;99.90;;;;;;5025755;28;20435;-74
2023/09/09 06:27:44;;;;;;;15.33;13.93;;;22.00;99.90;;;;;;5026078;28;20176;-74
2023/09/09 06:30:10;;;;;;;16.87;15.37;;;22.00;99.90;;;;;;5029182;28;20473;-74
2023/09/09 06:32:36;;;;;;;16.73;14.00;;;22.00;99.90;;;;;;5024560;28;20446;-75
2023/09/09 06:35:02;;;;;;;17.17;15.47;;;22.00;99.90;;;;;;5026836;28;20809;-75
2023/09/09 06:37:28;;;;;;;15.27;13.97;;;22.10;99.90;;;;;;5025738;28;20188;-75
2023/09/09 06:39:53;;;;;;;15.47;13.97;;;22.10;99.90;;;;;;5026594;28;20455;-75
2023/09/09 06:42:19;;;;;;;16.93;15.33;;;22.20;99.90;;;;;;5021867;28;20259;-75
2023/09/09 06:44:45;;;;;;;21.70;19.53;;;22.20;99.90;;;;;;5021301;28;20188;-75
2023/09/09 06:47:11;;;;;;;16.03;14.53;;;22.20;99.90;;;;;;5025487;28;20279;-75
2023/09/09 06:49:36;;;;;;;15.20;13.70;;;22.20;99.90;;;;;;5021035;28;20197;-75
2023/09/09 06:52:03;;;;;;;17.60;15.10;;;22.20;99.90;;;;;;5023809;28;20640;-74
2023/09/09 06:54:28;;;;;;;15.90;14.40;;;22.30;99.90;;;;;;5018311;28;20956;-74
2023/09/09 06:56:54;;;;;;;15.67;14.17;;;22.30;99.90;;;;;;5026930;28;20451;-78
2023/09/09 06:59:22;;;;;;;17.13;15.00;;;22.30;99.90;;;;;;5021851;28;20184;-74
2023/09/09 07:01:49;;;;;;;17.47;15.73;;;22.40;99.90;;;;;;5019756;28;20192;-74
2023/09/09 07:04:14;;;;;;;15.97;14.20;;;22.40;99.90;;;;;;5025939;28;20426;-74
2023/09/09 07:06:41;;;;;;;15.70;14.20;;;22.40;99.90;;;;;;5026548;28;20881;-74
2023/09/09 07:09:09;;;;;;;16.70;15.10;;;22.40;99.90;;;;;;5024440;28;20262;-74
2023/09/09 07:11:35;;;;;;;18.77;15.00;;;22.50;99.90;;;;;;5020901;28;20540;-74
2023/09/09 07:14:00;;;;;;;17.33;15.70;;;22.60;99.90;;;;;;5024857;28;20434;-74
2023/09/09 07:16:28;;;;;;;17.37;15.70;;;22.60;99.90;;;;;;5009497;28;20184;-74
2023/09/09 07:18:53;;;;;;;17.90;16.00;;;22.60;99.90;;;;;;5020757;28;20207;-74
2023/09/09 07:21:19;;;;;;;17.63;15.93;;;22.70;99.90;;;;;;5022697;28;20936;-74
2023/09/09 07:23:44;;;;;;;17.87;16.10;;;22.70;99.90;;;;;;5023933;28;20275;-74
2023/09/09 07:26:10;;;;;;;23.03;20.83;;;22.80;99.90;;;;;;5021689;28;20402;-74
2023/09/09 07:28:35;;;;;;;22.50;20.30;;;22.80;99.90;;;;;;5019235;28;20193;-74
2023/09/09 07:31:02;;;;;;;18.37;16.73;;;22.80;99.90;;;;;;5022846;28;20266;-74
2023/09/09 07:33:28;;;;;;;20.70;18.80;;;22.90;99.90;;;;;;5013161;28;20259;-74
2023/09/09 07:35:54;;;;;;;20.17;18.37;;;22.90;99.90;;;;;;5024669;28;20415;-74
2023/09/09 07:38:19;;;;;;;20.10;18.10;;;22.90;99.90;;;;;;5017605;28;20426;-74
2023/09/09 07:40:45;;;;;;;19.90;18.00;;;23.00;99.90;;;;;;5023765;28;20607;-73
2023/09/09 07:43:11;;;;;;;18.97;17.27;;;23.00;99.90;;;;;;5024914;28;20204;-74
2023/09/09 07:45:36;;;;;;;19.40;17.63;;;23.00;99.90;;;;;;5024409;28;20204;-74
2023/09/09 07:48:02;;;;;;;20.33;18.50;;;23.10;99.90;;;;;;5018700;28;20196;-74
2023/09/09 07:50:27;;;;;;;21.03;19.13;;;23.10;99.90;;;;;;5011704;28;20250;-74
2023/09/09 07:52:53;;;;;;;20.27;18.20;;;23.20;99.90;;;;;;5028126;28;20801;-74
2023/09/09 07:55:19;;;;;;;18.60;16.80;;;23.20;99.90;;;;;;5024713;28;20682;-74
2023/09/09 07:57:44;;;;;;;17.73;16.10;;;23.20;99.90;;;;;;5020245;28;20183;-74
2023/09/09 08:00:10;;;;;;;18.73;16.93;;;23.30;99.90;;;;;;5022533;28;20217;-74
2023/09/09 08:02:36;;;;;;;17.37;15.77;;;23.30;99.90;;;;;;5027445;28;20258;-74
2023/09/09 08:05:03;;;;;;;17.60;15.90;;;23.20;99.90;;;;;;5027422;28;20422;-74
2023/09/09 08:07:28;;;;;;;17.20;15.50;;;23.40;99.90;;;;;;5022162;28;20568;-74
2023/09/09 08:09:54;;;;;;;17.90;16.00;;;23.50;99.90;;;;;;5022857;28;20475;-74
2023/09/09 08:12:19;;;;;;;16.30;14.60;;;23.50;99.90;;;;;;5019810;28;20276;-74
2023/09/09 08:14:45;;;;;;;16.67;14.97;;;23.60;99.90;;;;;;5022721;28;20270;-74
2023/09/09 08:17:11;;;;;;;20.60;18.60;;;23.80;99.90;;;;;;5008956;28;20268;-74
2023/09/09 08:19:37;;;;;;;18.00;16.10;;;23.80;99.90;;;;;;5021505;28;20208;-74
2023/09/09 08:22:02;;;;;;;17.57;15.97;;;23.80;99.90;;;;;;5021421;28;21034;-74
2023/09/09 08:24:28;;;;;;;17.83;16.03;;;23.80;99.90;;;;;;5018468;28;20183;-74
2023/09/09 08:26:54;;;;;;;19.50;16.10;;;23.90;99.90;;;;;;5026607;28;20643;-74
2023/09/09 08:29:19;;;;;;;17.80;15.40;;;24.00;99.90;;;;;;5024880;28;20275;-74
2023/09/09 08:31:48;;;;;;;18.30;16.00;;;24.10;99.90;;;;;;5027201;28;20250;-74
2023/09/09 08:34:13;;;;;;;16.17;14.57;;;24.20;99.90;;;;;;5024837;28;20172;-74
2023/09/09 08:36:39;;;;;;;19.57;17.67;;;24.10;99.90;;;;;;5029037;28;20407;-75
2023/09/09 08:39:04;;;;;;;17.70;16.17;;;24.10;99.90;;;;;;5028813;28;20259;-75
2023/09/09 08:42:07;;;;;;;16.93;15.30;;;24.10;99.90;;;;;;5021638;28;20193;-74
2023/09/09 08:45:05;;;;;;;17.73;16.03;;;24.20;99.90;;;;;;5001617;28;20200;-74
2023/09/09 08:47:36;;;;;;;16.40;14.90;;;24.20;99.90;;;;;;5019789;28;20438;-74
2023/09/09 08:50:04;;;;;;;17.70;15.73;;;24.30;99.90;;;;;;5023904;28;20462;-75
2023/09/09 08:52:29;;;;;;;17.23;15.57;;;24.40;99.90;;;;;;5027924;28;21282;-74
2023/09/09 08:54:56;;;;;;;16.50;14.90;;;24.40;99.90;;;;;;5025219;28;20439;-74
2023/09/09 08:57:23;;;;;;;16.27;14.87;;;24.60;99.90;;;;;;5029290;28;20180;-74
2023/09/09 08:59:49;;;;;;;17.87;16.20;;;24.60;99.90;;;;;;5029625;28;20414;-74
2023/09/09 09:02:15;;;;;;;16.20;14.47;;;24.50;99.90;;;;;;5026920;28;20439;-75
2023/09/09 09:04:42;;;;;;;15.57;14.03;;;24.60;99.90;;;;;;5025449;28;20460;-74
2023/09/09 09:07:08;;;;;;;17.10;15.30;;;24.70;99.90;;;;;;5026996;28;20197;-74
2023/09/09 09:09:34;;;;;;;16.00;14.50;;;24.70;99.90;;;;;;5024763;28;20470;-74
2023/09/09 09:12:01;;;;;;;18.60;16.90;;;24.90;99.90;;;;;;5025572;28;20277;-74
2023/09/09 09:14:27;;;;;;;16.97;15.40;;;25.00;99.90;;;;;;5023578;28;20467;-74
2023/09/09 09:16:54;;;;;;;16.10;14.60;;;24.90;99.90;;;;;;5027067;28;20519;-74
2023/09/09 09:19:27;;;;;;;15.50;14.10;;;25.00;99.90;;;;;;5022638;28;20186;-74
2023/09/09 09:21:54;;;;;;;17.13;14.57;;;25.10;99.90;;;;;;5028560;28;20430;-74
2023/09/09 09:24:27;;;;;;;15.20;13.60;;;25.10;99.90;;;;;;5020366;28;20829;-74
2023/09/09 09:26:54;;;;;;;17.63;14.90;;;25.20;99.90;;;;;;5020808;28;20455;-74
2023/09/09 09:29:20;;;;;;;14.83;13.43;;;25.20;99.90;;;;;;5027001;28;20467;-74
2023/09/09 09:31:54;;;;;;;15.53;14.10;;;25.20;99.90;;;;;;5024951;28;20427;-74
2023/09/09 09:34:21;;;;;;;15.87;14.27;;;25.20;99.90;;;;;;5024233;28;20191;-74
2023/09/09 09:36:47;;;;;;;14.47;13.10;;;25.30;99.90;;;;;;5024421;28;20399;-74
2023/09/09 09:39:14;;;;;;;14.20;12.90;;;25.30;99.90;;;;;;5025294;28;20907;-74
2023/09/09 09:41:45;;;;;;;13.57;12.40;;;25.40;99.90;;;;;;5021715;28;21156;-74
2023/09/09 09:44:18;;;;;;;13.13;11.83;;;25.40;99.90;;;;;;5025816;28;20469;-74
2023/09/09 09:47:07;;;;;;;15.73;12.23;;;25.50;99.90;;;;;;5024018;28;20477;-74
2023/09/09 09:49:48;;;;;;;14.13;12.73;;;25.70;99.90;;;;;;5021899;28;20467;-74
2023/09/09 09:52:23;;;;;;;21.50;13.70;;;25.90;99.90;;;;;;5021981;28;20556;-74
2023/09/09 09:54:51;;;;;;;13.57;12.37;;;25.80;99.90;;;;;;5024638;28;20410;-75
2023/09/09 09:57:20;;;;;;;13.97;12.60;;;25.80;99.90;;;;;;5023192;28;20427;-75
2023/09/09 09:59:46;;;;;;;13.47;12.27;;;25.80;99.90;;;;;;5027126;28;20506;-74
2023/09/09 10:02:13;;;;;;;13.97;12.57;;;26.00;99.90;;;;;;5022962;28;20550;-74
2023/09/09 10:04:42;;;;;;;14.90;13.50;;;25.90;99.90;;;;;;5024985;28;20271;-74
2023/09/09 10:07:16;;;;;;;13.10;11.90;;;26.10;99.90;;;;;;5024741;28;20435;-74
2023/09/09 10:10:09;;;;;;;16.03;14.53;;;26.20;99.90;;;;;;5021700;28;20514;-74
2023/09/09 10:12:39;;;;;;;13.33;11.93;;;26.30;99.90;;;;;;5025279;28;20423;-74
2023/09/09 10:15:05;;;;;;;13.30;12.10;;;26.30;99.90;;;;;;5027070;28;20409;-74
2023/09/09 10:17:32;;;;;;;13.63;12.43;;;26.40;99.90;;;;;;5010530;28;20485;-74
2023/09/09 10:20:22;;;;;;;13.03;11.73;;;26.40;99.90;;;;;;5030817;28;20435;-74
2023/09/09 10:22:58;;;;;;;13.90;12.60;;;26.50;99.90;;;;;;5026117;28;20442;-74
2023/09/09 10:25:25;;;;;;;12.77;11.47;;;26.70;99.90;;;;;;5034307;28;20414;-75
2023/09/09 10:27:51;;;;;;;14.37;11.47;;;26.70;99.90;;;;;;5040383;28;20415;-74
2023/09/09 10:30:18;;;;;;;13.17;11.87;;;26.80;99.90;;;;;;5033615;28;20498;-74
2023/09/09 10:32:45;;;;;;;13.90;12.80;;;26.80;99.90;;;;;;5031475;28;20471;-74
2023/09/09 10:35:12;;;;;;;13.37;12.07;;;26.90;99.90;;;;;;5035099;28;20419;-74
2023/09/09 10:37:38;;;;;;;12.50;10.93;;;26.80;99.90;;;;;;5038794;28;20482;-74
2023/09/09 10:40:06;;;;;;;13.10;11.93;;;26.80;99.90;;;;;;5022113;28;20992;-74
2023/09/09 10:42:36;;;;;;;13.63;12.03;;;26.90;99.90;;;;;;5029037;28;20800;-75
2023/09/09 10:45:29;;;;;;;12.87;11.47;;;27.00;99.90;;;;;;5029746;28;20435;-75
2023/09/09 10:48:03;;;;;;;13.20;11.30;;;27.10;99.90;;;;;;5020925;28;20444;-75
2023/09/09 10:50:45;;;;;;;13.53;12.10;;;27.20;99.90;;;;;;5026874;28;20466;-75
2023/09/09 10:53:27;;;;;;;13.97;12.57;;;27.30;99.90;;;;;;5023950;28;20451;-75
2023/09/09 10:55:58;;;;;;;11.70;10.53;;;27.40;99.90;;;;;;5020619;28;20422;-75
2023/09/09 10:58:38;;;;;;;12.87;11.67;;;27.40;99.90;;;;;;5026277;28;20407;-75
2023/09/09 11:01:06;;;;;;;12.23;10.97;;;27.50;99.90;;;;;;5020322;28;20431;-74
2023/09/09 11:03:45;;;;;;;11.23;10.13;;;27.60;99.90;;;;;;5020466;28;20578;-74
2023/09/09 11:06:19;;;;;;;11.80;10.70;;;27.70;99.90;;;;;;5026225;28;20407;-74
2023/09/09 11:08:46;;;;;;;13.40;11.83;;;27.70;99.90;;;;;;5019490;28;20455;-74
2023/09/09 11:11:35;;;;;;;12.97;11.70;;;27.80;99.90;;;;;;5025448;28;20467;-74
2023/09/09 11:14:05;;;;;;;12.60;11.50;;;27.90;99.90;;;;;;5025960;28;20424;-74
2023/09/09 11:16:36;;;;;;;12.33;11.13;;;27.90;99.90;;;;;;5022604;28;20434;-74
2023/09/09 11:19:09;;;;;;;12.00;10.80;;;28.10;99.90;;;;;;5024453;28;20423;-74
2023/09/09 11:21:46;;;;;;;12.70;11.10;;;28.10;99.90;;;;;;5024412;28;20423;-73
2023/09/09 11:24:13;;;;;;;10.77;9.67;;;28.20;99.90;;;;;;5025210;28;20418;-73
2023/09/09 11:26:46;;;;;;;10.20;9.30;;;28.30;99.90;;;;;;5022409;28;20456;-74
2023/09/09 11:29:13;;;;;;;10.00;9.10;;;28.40;99.90;;;;;;5024509;28;20462;-74
2023/09/09 11:31:38;;;;;;;9.77;8.87;;;28.50;99.90;;;;;;5019093;28;20467;-74
2023/09/09 11:34:05;;;;;;;10.07;9.10;;;28.60;99.90;;;;;;5023454;28;20427;-74
2023/09/09 11:36:30;;;;;;;9.57;8.70;;;28.70;99.90;;;;;;5017843;28;20187;-74
2023/09/09 11:39:00;;;;;;;13.57;8.97;;;28.90;99.90;;;;;;5020733;28;20802;-74
2023/09/09 11:41:28;;;;;;;10.20;9.30;;;29.00;99.90;;;;;;5025664;28;20197;-74
2023/09/09 11:44:08;;;;;;;13.33;9.20;;;29.00;99.90;;;;;;5031110;28;20455;-74
2023/09/09 11:46:49;;;;;;;10.20;9.20;;;29.10;99.90;;;;;;5023878;28;20458;-74
2023/09/09 11:49:16;;;;;;;11.83;10.73;;;29.30;99.90;;;;;;5022663;28;20820;-73
2023/09/09 11:51:42;;;;;;;10.07;9.07;;;29.50;99.90;;;;;;5023949;28;20435;-74
2023/09/09 11:54:11;;;;;;;10.73;9.60;;;29.70;99.90;;;;;;5026218;28;20930;-74
2023/09/09 11:56:36;;;;;;;11.33;10.40;;;29.80;99.90;;;;;;5022584;28;20427;-74
2023/09/09 11:59:10;;;;;;;10.63;9.60;;;30.00;99.90;;;;;;5022911;28;20967;-74
2023/09/09 12:01:45;;;;;;;9.83;9.03;;;30.30;99.90;;;;;;5025485;28;20185;-74
2023/09/09 12:04:12;;;;;;;8.53;7.83;;;30.70;99.90;;;;;;5028046;28;20451;-74
2023/09/09 12:06:43;;;;;;;10.73;9.73;;;31.20;99.90;;;;;;5029299;28;20887;-74
2023/09/09 12:09:09;;;;;;;9.37;8.50;;;31.60;99.90;;;;;;5027482;28;20467;-78
2023/09/09 12:11:36;;;;;;;9.10;8.30;;;32.10;99.90;;;;;;5030105;28;20415;-74
2023/09/09 12:14:02;;;;;;;9.20;8.30;;;32.50;99.90;;;;;;5029196;28;20425;-74
2023/09/09 12:16:32;;;;;;;9.33;8.30;;;32.80;99.70;;;;;;5028399;28;20903;-74
2023/09/09 12:18:58;;;;;;;10.33;8.17;;;33.20;99.30;;;;;;5026142;28;20508;-75
2023/09/09 12:21:24;;;;;;;8.63;7.77;;;33.40;95.80;;;;;;5027927;28;20481;-75
2023/09/09 12:23:57;;;;;;;9.30;8.43;;;33.60;95.50;;;;;;5023860;28;20268;-75
2023/09/09 12:26:22;;;;;;;7.23;6.63;;;33.90;94.80;;;;;;5027656;28;20173;-75
2023/09/09 12:29:08;;;;;;;9.57;7.97;;;34.10;93.70;;;;;;5029424;28;20469;-75